Time;durP1;ratioP1;P1;durP2;ratioP2;P2;SDS_P1;SDS_P2;PMS_P1;PMS_P2;Temp;Humidity;BMP_temperature;BMP_pressure;BME280_temperature;BME280_humidity;BME280_pressure;Samples;Min_cycle;Max_cycle;Signal;HPM_P1;HPM_P2
2021/12/26 00:01:10;;;;;;;3.38;1.63;;;-5.90;99.90;;;;;;4924894;29;20063;-49
2021/12/26 00:03:37;;;;;;;2.70;1.58;;;-6.00;99.90;;;;;;4942926;28;20055;-49
2021/12/26 00:06:12;;;;;;;4.38;1.88;;;-6.00;99.90;;;;;;4926321;29;20597;-48
2021/12/26 00:08:40;;;;;;;3.53;1.50;;;-6.00;99.90;;;;;;4923773;28;20097;-49
2021/12/26 00:11:06;;;;;;;2.65;1.60;;;-6.00;99.90;;;;;;4943267;28;20118;-49
2021/12/26 00:13:32;;;;;;;3.15;1.73;;;-6.00;99.90;;;;;;4940845;28;20156;-49
2021/12/26 00:15:59;;;;;;;2.50;1.45;;;-5.90;99.90;;;;;;4949482;28;20090;-48
2021/12/26 00:18:26;;;;;;;3.95;1.40;;;-5.90;99.90;;;;;;4944887;28;20464;-48
2021/12/26 00:20:52;;;;;;;4.97;2.22;;;-5.90;99.90;;;;;;4943654;28;20555;-51
2021/12/26 00:23:21;;;;;;;4.93;1.65;;;-5.90;99.90;;;;;;4945607;28;20063;-48
2021/12/26 00:25:47;;;;;;;2.35;1.80;;;-5.90;99.90;;;;;;4933226;28;20053;-49
2021/12/26 00:28:13;;;;;;;3.63;1.85;;;-5.90;99.90;;;;;;4949045;28;20510;-50
2021/12/26 00:30:40;;;;;;;4.00;1.33;;;-5.90;99.90;;;;;;4945992;28;20043;-48
2021/12/26 00:33:06;;;;;;;5.07;2.00;;;-5.80;99.90;;;;;;4946293;28;20137;-50
2021/12/26 00:35:31;;;;;;;3.28;1.33;;;-5.80;99.90;;;;;;4950941;28;20165;-49
2021/12/26 00:37:57;;;;;;;4.43;1.60;;;-5.80;99.90;;;;;;4948551;28;20082;-50
2021/12/26 00:40:26;;;;;;;3.92;1.40;;;-5.80;99.90;;;;;;4929935;29;20534;-50
2021/12/26 00:42:53;;;;;;;2.45;1.50;;;-5.90;99.90;;;;;;4929995;29;20059;-50
2021/12/26 00:45:19;;;;;;;1.65;1.20;;;-5.90;99.90;;;;;;4911791;29;20074;-49
2021/12/26 00:47:46;;;;;;;2.80;1.27;;;-5.90;99.90;;;;;;4946047;28;20049;-48
2021/12/26 00:50:15;;;;;;;2.83;1.48;;;-5.90;99.90;;;;;;4939761;28;20051;-48
2021/12/26 00:52:41;;;;;;;4.57;1.33;;;-5.90;99.90;;;;;;4946567;28;20059;-49
2021/12/26 00:55:10;;;;;;;4.72;1.83;;;-5.90;99.90;;;;;;4946254;28;20069;-51
2021/12/26 00:57:37;;;;;;;5.68;1.50;;;-5.90;99.90;;;;;;4944794;28;20062;-50
2021/12/26 01:00:06;;;;;;;2.90;1.20;;;-5.90;99.90;;;;;;4928266;28;20055;-48
2021/12/26 01:02:32;;;;;;;5.40;1.10;;;-5.90;99.90;;;;;;4945214;28;20059;-50
2021/12/26 01:04:58;;;;;;;4.68;1.42;;;-5.80;99.90;;;;;;4945862;28;20557;-49
2021/12/26 01:10:08;;;;;;;4.80;1.37;;;-5.90;99.90;;;;;;4946143;28;20086;-48
2021/12/26 01:12:34;;;;;;;4.50;1.30;;;-6.00;99.90;;;;;;4927110;29;20067;-49
2021/12/26 01:15:05;;;;;;;3.60;1.95;;;-6.00;99.90;;;;;;4945765;28;20054;-48
2021/12/26 01:17:32;;;;;;;2.53;1.20;;;-6.00;99.90;;;;;;4910460;29;20051;-49
2021/12/26 01:19:58;;;;;;;4.60;1.63;;;-6.00;99.90;;;;;;4943697;28;20427;-49
2021/12/26 01:22:26;;;;;;;4.65;1.83;;;-6.00;99.90;;;;;;4944659;28;20090;-48
2021/12/26 01:24:55;;;;;;;3.63;1.17;;;-6.00;99.90;;;;;;4945306;28;20110;-48
2021/12/26 01:27:26;;;;;;;4.13;1.48;;;-6.00;99.90;;;;;;4944777;28;20138;-49
2021/12/26 01:29:53;;;;;;;3.40;1.70;;;-6.00;99.90;;;;;;4923341;28;20470;-50
2021/12/26 01:32:20;;;;;;;2.83;1.20;;;-6.00;99.90;;;;;;4926707;28;20525;-48
2021/12/26 01:34:46;;;;;;;3.80;1.42;;;-6.00;99.90;;;;;;4955153;28;20069;-49
2021/12/26 01:37:13;;;;;;;2.78;1.40;;;-6.00;99.90;;;;;;4945357;29;20047;-49
2021/12/26 01:39:39;;;;;;;3.03;1.42;;;-6.00;99.90;;;;;;4927462;29;20151;-50
2021/12/26 01:42:05;;;;;;;3.28;1.40;;;-6.00;99.90;;;;;;4933298;28;20051;-50
2021/12/26 01:44:34;;;;;;;2.80;1.52;;;-6.00;99.90;;;;;;4945549;28;20047;-49
2021/12/26 01:47:00;;;;;;;6.63;2.17;;;-6.10;99.90;;;;;;4945391;28;20387;-48
2021/12/26 01:49:28;;;;;;;3.05;1.58;;;-6.10;99.90;;;;;;4944621;28;20050;-48
2021/12/26 01:51:57;;;;;;;3.60;1.50;;;-6.20;99.90;;;;;;4944626;28;20538;-49
2021/12/26 01:56:54;;;;;;;3.33;1.67;;;-6.20;99.90;;;;;;4941475;28;20047;-49
2021/12/26 01:59:23;;;;;;;3.63;1.27;;;-6.20;99.90;;;;;;4927406;29;20126;-48
2021/12/26 02:01:49;;;;;;;3.22;1.45;;;-6.30;99.90;;;;;;4943226;28;20077;-49
2021/12/26 02:04:15;;;;;;;2.40;1.35;;;-6.30;99.90;;;;;;4933112;28;20182;-48
2021/12/26 02:06:41;;;;;;;3.95;1.20;;;-6.40;99.90;;;;;;4944146;28;20051;-48
2021/12/26 02:09:07;;;;;;;2.55;1.30;;;-6.40;99.90;;;;;;4944217;28;20047;-50
2021/12/26 02:11:33;;;;;;;2.60;1.50;;;-6.40;99.90;;;;;;4944514;28;20051;-49
2021/12/26 02:14:02;;;;;;;4.30;1.52;;;-6.40;99.90;;;;;;4926903;28;20054;-48
2021/12/26 02:16:27;;;;;;;3.13;1.50;;;-6.50;99.90;;;;;;4944185;28;20055;-50
2021/12/26 02:18:53;;;;;;;2.80;1.70;;;-6.50;99.90;;;;;;4944563;28;20047;-48
2021/12/26 02:24:05;;;;;;;4.45;1.88;;;-6.50;99.90;;;;;;4948925;28;20059;-52
2021/12/26 02:29:15;;;;;;;2.78;1.27;;;-6.50;99.90;;;;;;4926289;29;20062;-50
2021/12/26 02:31:41;;;;;;;2.78;1.48;;;-6.50;99.90;;;;;;4943914;28;20051;-49
2021/12/26 02:34:07;;;;;;;2.28;1.25;;;-6.60;99.90;;;;;;4943272;28;20102;-49
2021/12/26 02:36:32;;;;;;;2.35;1.25;;;-6.60;99.90;;;;;;4944520;28;20146;-48
2021/12/26 02:38:59;;;;;;;1.80;1.13;;;-6.70;99.90;;;;;;4927397;29;20822;-48
2021/12/26 02:41:25;;;;;;;4.50;1.30;;;-6.70;99.90;;;;;;4924063;29;20051;-48
2021/12/26 02:43:51;;;;;;;2.55;1.25;;;-6.60;99.90;;;;;;4943498;28;20054;-51
2021/12/26 02:46:17;;;;;;;4.40;1.58;;;-6.60;99.90;;;;;;4911152;29;20681;-48
2021/12/26 02:48:44;;;;;;;1.88;1.25;;;-6.60;99.90;;;;;;4941934;28;20058;-48
2021/12/26 02:51:10;;;;;;;2.67;1.38;;;-6.60;99.90;;;;;;4943887;28;20498;-49
2021/12/26 02:53:36;;;;;;;2.97;1.42;;;-6.60;99.90;;;;;;4926010;28;20165;-50
2021/12/26 02:56:03;;;;;;;2.75;1.40;;;-6.60;99.90;;;;;;4928413;29;20614;-49
2021/12/26 02:58:29;;;;;;;2.35;1.30;;;-6.60;99.90;;;;;;4925309;28;20055;-48
2021/12/26 03:01:01;;;;;;;3.42;1.92;;;-6.50;99.90;;;;;;4944186;28;20383;-50
2021/12/26 03:03:27;;;;;;;2.83;1.75;;;-6.60;99.90;;;;;;4945976;28;20051;-50
2021/12/26 03:06:01;;;;;;;3.90;1.45;;;-6.60;99.90;;;;;;4952926;28;20050;-48
2021/12/26 03:08:27;;;;;;;7.00;1.98;;;-6.60;99.90;;;;;;4945142;28;20054;-48
2021/12/26 03:10:54;;;;;;;4.00;1.70;;;-6.70;99.90;;;;;;4943488;28;20047;-48
2021/12/26 03:13:20;;;;;;;5.07;1.65;;;-6.70;99.90;;;;;;4911704;28;20055;-48
2021/12/26 03:15:47;;;;;;;3.95;1.50;;;-6.70;99.90;;;;;;4943666;28;20046;-49
2021/12/26 03:18:13;;;;;;;4.40;1.40;;;-6.70;99.90;;;;;;4942959;28;20055;-49
2021/12/26 03:20:42;;;;;;;2.97;1.42;;;-6.70;99.90;;;;;;4925634;29;20513;-50
2021/12/26 03:23:11;;;;;;;5.03;1.67;;;-6.60;99.90;;;;;;4943556;28;20055;-49
2021/12/26 03:25:37;;;;;;;4.68;1.50;;;-6.70;99.90;;;;;;4943572;28;20124;-50
2021/12/26 03:28:05;;;;;;;3.00;1.55;;;-6.70;99.90;;;;;;4943233;28;20529;-49
2021/12/26 03:30:32;;;;;;;4.10;1.65;;;-6.70;99.90;;;;;;4942548;28;20055;-49
2021/12/26 03:33:00;;;;;;;5.72;1.75;;;-6.70;99.90;;;;;;4943182;28;20786;-50
2021/12/26 03:35:27;;;;;;;3.25;1.58;;;-6.80;99.90;;;;;;4947752;28;20051;-48
2021/12/26 03:37:57;;;;;;;3.45;1.50;;;-6.70;99.90;;;;;;4942856;28;20059;-48
2021/12/26 03:40:23;;;;;;;3.45;1.60;;;-6.80;99.90;;;;;;4943890;28;20098;-48
2021/12/26 03:42:51;;;;;;;2.70;1.58;;;-6.80;99.90;;;;;;4945259;28;20731;-49
2021/12/26 03:45:18;;;;;;;3.03;1.38;;;-6.80;99.90;;;;;;4943234;28;20054;-51
2021/12/26 03:47:48;;;;;;;3.17;1.58;;;-6.80;99.90;;;;;;4940414;28;20043;-48
2021/12/26 03:50:15;;;;;;;2.45;1.30;;;-6.80;99.90;;;;;;4942656;28;20106;-49
2021/12/26 03:52:41;;;;;;;3.53;1.60;;;-6.70;99.90;;;;;;4943347;28;20079;-48
2021/12/26 03:55:07;;;;;;;3.78;1.77;;;-6.70;99.90;;;;;;4946326;28;20083;-48
2021/12/26 03:57:33;;;;;;;3.28;1.50;;;-6.70;99.90;;;;;;4946290;28;20054;-49
2021/12/26 03:59:59;;;;;;;5.13;1.60;;;-6.80;99.90;;;;;;4928689;28;20269;-48
2021/12/26 04:02:25;;;;;;;4.43;1.48;;;-6.70;99.90;;;;;;4940645;28;20047;-49
2021/12/26 04:04:51;;;;;;;5.35;1.90;;;-6.80;99.90;;;;;;4929887;28;20461;-49
2021/12/26 04:07:17;;;;;;;4.10;1.75;;;-6.70;99.90;;;;;;4944920;28;20047;-49
2021/12/26 04:09:43;;;;;;;3.55;1.30;;;-6.70;99.90;;;;;;4947715;28;20047;-50
2021/12/26 04:12:09;;;;;;;2.78;1.95;;;-6.80;99.90;;;;;;4947350;28;20050;-48
2021/12/26 04:14:35;;;;;;;3.78;1.35;;;-6.80;99.90;;;;;;4940405;28;20130;-48
2021/12/26 04:17:02;;;;;;;4.10;1.45;;;-6.80;99.90;;;;;;4946649;28;20077;-49
2021/12/26 04:19:28;;;;;;;2.00;1.17;;;-6.80;99.90;;;;;;4946775;28;20391;-48
2021/12/26 04:21:54;;;;;;;2.63;1.42;;;-6.80;99.90;;;;;;4941700;28;20146;-50
2021/12/26 04:24:19;;;;;;;2.75;1.63;;;-6.80;99.90;;;;;;4945680;28;20422;-50
2021/12/26 04:26:45;;;;;;;4.78;1.60;;;-6.80;99.90;;;;;;4946255;28;20078;-50
2021/12/26 04:29:11;;;;;;;3.15;1.90;;;-6.80;99.90;;;;;;4946193;28;20401;-49
2021/12/26 04:31:37;;;;;;;2.35;1.38;;;-6.80;99.90;;;;;;4946846;28;20126;-49
2021/12/26 04:34:04;;;;;;;4.35;1.80;;;-6.80;99.90;;;;;;4950757;28;20054;-48
2021/12/26 04:36:30;;;;;;;3.17;1.27;;;-6.90;99.90;;;;;;4947606;28;20572;-50
2021/12/26 04:38:56;;;;;;;2.67;1.35;;;-6.90;99.90;;;;;;4917573;28;20055;-49
2021/12/26 04:41:22;;;;;;;4.20;1.70;;;-6.90;99.90;;;;;;4949973;28;20292;-49
2021/12/26 04:43:48;;;;;;;4.15;1.80;;;-6.90;99.90;;;;;;4943194;28;20047;-48
2021/12/26 04:46:14;;;;;;;5.75;1.63;;;-6.90;99.90;;;;;;4946102;28;20039;-51
2021/12/26 04:48:43;;;;;;;3.03;1.60;;;-6.90;99.90;;;;;;4944719;28;20094;-50
2021/12/26 04:51:11;;;;;;;4.45;1.42;;;-6.90;99.90;;;;;;4945454;28;20043;-49
2021/12/26 04:53:39;;;;;;;2.60;1.50;;;-7.00;99.90;;;;;;4943881;28;20259;-48
2021/12/26 04:56:06;;;;;;;3.40;1.60;;;-7.00;99.90;;;;;;4947210;28;20477;-49
2021/12/26 04:58:34;;;;;;;2.88;1.55;;;-6.90;99.90;;;;;;4928439;29;20142;-48
2021/12/26 05:00:59;;;;;;;3.50;1.98;;;-7.00;99.90;;;;;;4945575;28;20117;-50
2021/12/26 05:03:25;;;;;;;2.95;1.67;;;-7.00;99.90;;;;;;4927722;29;20055;-49
2021/12/26 05:05:51;;;;;;;3.40;1.40;;;-7.00;99.90;;;;;;4943857;28;20066;-48
2021/12/26 05:08:17;;;;;;;2.38;1.40;;;-6.90;99.90;;;;;;4924447;29;20059;-49
2021/12/26 05:10:43;;;;;;;4.13;1.50;;;-6.90;99.90;;;;;;4945843;28;20062;-49
2021/12/26 05:13:09;;;;;;;3.60;1.77;;;-7.00;99.90;;;;;;4944576;28;20414;-50
2021/12/26 05:15:35;;;;;;;5.13;1.70;;;-7.00;99.90;;;;;;4942732;28;20089;-49
2021/12/26 05:18:02;;;;;;;3.47;1.48;;;-7.00;99.90;;;;;;4945649;28;20538;-48
2021/12/26 05:20:29;;;;;;;3.95;1.80;;;-7.00;99.90;;;;;;4945450;28;20049;-48
2021/12/26 05:22:56;;;;;;;3.83;1.85;;;-6.90;99.90;;;;;;4944696;28;20522;-48
2021/12/26 05:25:23;;;;;;;2.97;1.40;;;-7.00;99.90;;;;;;4945135;28;20452;-50
2021/12/26 05:27:53;;;;;;;3.60;1.95;;;-7.00;99.90;;;;;;4938741;28;20054;-49
2021/12/26 05:30:21;;;;;;;4.40;1.70;;;-7.00;99.90;;;;;;4927747;28;20066;-51
2021/12/26 05:32:48;;;;;;;3.75;1.70;;;-6.90;99.90;;;;;;4945814;28;20079;-50
2021/12/26 05:35:15;;;;;;;4.93;1.63;;;-6.90;99.90;;;;;;4948595;28;20062;-49
2021/12/26 05:37:42;;;;;;;3.65;1.50;;;-7.00;99.90;;;;;;4945474;28;20059;-48
2021/12/26 05:40:10;;;;;;;5.55;1.45;;;-7.00;99.90;;;;;;4948265;28;20054;-49
2021/12/26 05:42:37;;;;;;;3.53;1.60;;;-7.00;99.90;;;;;;4944454;28;20047;-49
2021/12/26 05:45:04;;;;;;;4.05;1.98;;;-7.00;99.90;;;;;;4944949;28;20709;-52
2021/12/26 05:47:31;;;;;;;3.42;1.40;;;-6.90;99.90;;;;;;4944570;28;20462;-49
2021/12/26 05:49:57;;;;;;;3.05;1.33;;;-6.90;99.90;;;;;;4944946;28;20614;-49
2021/12/26 05:52:23;;;;;;;4.28;1.83;;;-6.90;99.90;;;;;;4939161;28;20044;-50
2021/12/26 05:54:49;;;;;;;4.30;1.70;;;-6.90;99.90;;;;;;4939925;28;20134;-50
2021/12/26 05:57:15;;;;;;;3.20;1.27;;;-6.90;99.90;;;;;;4927474;29;20198;-51
2021/12/26 05:59:42;;;;;;;4.65;1.60;;;-6.90;99.90;;;;;;4945338;28;20106;-48
2021/12/26 06:02:08;;;;;;;1.90;1.40;;;-6.90;99.90;;;;;;4944172;28;20047;-48
2021/12/26 06:04:34;;;;;;;2.85;1.50;;;-6.80;99.90;;;;;;4928732;28;20418;-49
2021/12/26 06:07:00;;;;;;;2.90;1.75;;;-6.80;99.90;;;;;;4926656;29;20042;-49
2021/12/26 06:09:27;;;;;;;3.25;1.80;;;-6.80;99.90;;;;;;4924075;28;20055;-49
2021/12/26 06:11:52;;;;;;;3.13;1.83;;;-6.80;99.90;;;;;;4934918;28;20051;-49
2021/12/26 06:14:18;;;;;;;5.00;1.80;;;-6.80;99.90;;;;;;4945951;28;20043;-51
2021/12/26 06:16:44;;;;;;;3.38;1.67;;;-6.70;99.90;;;;;;4940375;28;20530;-47
2021/12/26 06:19:10;;;;;;;2.03;1.40;;;-6.70;99.90;;;;;;4926623;29;20538;-48
2021/12/26 06:21:35;;;;;;;4.25;2.08;;;-6.70;99.90;;;;;;4920847;28;20410;-48
2021/12/26 06:24:01;;;;;;;3.75;1.95;;;-6.70;99.90;;;;;;4943341;28;20141;-49
2021/12/26 06:26:28;;;;;;;4.38;1.70;;;-6.70;99.90;;;;;;4944501;28;20183;-49
2021/12/26 06:28:54;;;;;;;3.33;1.70;;;-6.70;99.90;;;;;;4944131;28;20043;-50
2021/12/26 06:31:20;;;;;;;3.25;1.80;;;-6.60;99.90;;;;;;4945303;28;20055;-52
2021/12/26 06:33:46;;;;;;;4.30;2.53;;;-6.60;99.90;;;;;;4947358;28;20043;-50
2021/12/26 06:36:14;;;;;;;3.65;1.85;;;-6.70;99.90;;;;;;4944412;28;20051;-49
2021/12/26 06:38:44;;;;;;;3.42;1.48;;;-6.60;99.90;;;;;;4943309;28;20533;-48
2021/12/26 06:41:15;;;;;;;4.30;1.95;;;-6.70;99.90;;;;;;4940862;28;20047;-51
2021/12/26 06:43:42;;;;;;;3.15;2.00;;;-6.70;99.90;;;;;;4942981;28;20131;-50
2021/12/26 06:46:08;;;;;;;3.33;2.00;;;-6.70;99.90;;;;;;4947907;28;20130;-48
2021/12/26 06:48:34;;;;;;;3.33;2.13;;;-6.60;99.90;;;;;;4943709;28;20055;-49
2021/12/26 06:51:01;;;;;;;4.70;2.25;;;-6.60;99.90;;;;;;4927106;28;20171;-52
2021/12/26 06:53:27;;;;;;;2.75;1.70;;;-6.60;99.90;;;;;;4944920;28;20491;-49
2021/12/26 06:55:53;;;;;;;3.20;1.83;;;-6.60;99.90;;;;;;4926112;28;20447;-49
2021/12/26 06:58:19;;;;;;;3.58;1.90;;;-6.60;99.90;;;;;;4943223;28;20122;-49
2021/12/26 07:00:45;;;;;;;4.07;2.03;;;-6.50;99.90;;;;;;4943470;28;20502;-49
2021/12/26 07:03:11;;;;;;;6.45;2.22;;;-6.50;99.90;;;;;;4945275;28;20059;-50
2021/12/26 07:05:37;;;;;;;4.30;2.78;;;-6.50;99.90;;;;;;4943876;28;20063;-51
2021/12/26 07:08:03;;;;;;;5.75;2.58;;;-6.50;99.90;;;;;;4940304;28;20075;-48
2021/12/26 07:10:29;;;;;;;5.25;2.40;;;-6.50;99.90;;;;;;4939825;28;20047;-51
2021/12/26 07:12:55;;;;;;;3.78;2.17;;;-6.50;99.90;;;;;;4944395;28;20057;-47
2021/12/26 07:15:21;;;;;;;4.07;2.03;;;-6.60;99.90;;;;;;4926370;28;20055;-48
2021/12/26 07:17:47;;;;;;;4.57;2.10;;;-6.60;99.90;;;;;;4937109;28;20434;-48
2021/12/26 07:20:16;;;;;;;5.07;2.25;;;-6.60;99.90;;;;;;4909323;29;20059;-49
2021/12/26 07:22:44;;;;;;;6.32;2.55;;;-6.60;99.90;;;;;;4944173;28;20052;-50
2021/12/26 07:25:10;;;;;;;5.10;2.08;;;-6.60;99.90;;;;;;4949403;28;20096;-49
2021/12/26 07:27:36;;;;;;;4.03;2.10;;;-6.60;99.90;;;;;;4925300;28;20102;-48
2021/12/26 07:30:04;;;;;;;6.57;2.53;;;-6.60;99.90;;;;;;4930724;29;20166;-49
2021/12/26 07:32:31;;;;;;;5.10;1.90;;;-6.60;99.90;;;;;;4925672;29;20149;-49
2021/12/26 07:34:58;;;;;;;7.82;3.30;;;-6.70;99.90;;;;;;4944659;28;20082;-51
2021/12/26 07:37:24;;;;;;;5.50;2.75;;;-6.60;99.90;;;;;;4925250;29;20063;-49
2021/12/26 07:39:50;;;;;;;5.30;2.72;;;-6.60;99.90;;;;;;4943669;28;20047;-49
2021/12/26 07:42:16;;;;;;;5.15;2.67;;;-6.60;99.90;;;;;;4946655;28;20043;-49
2021/12/26 07:44:42;;;;;;;4.75;2.33;;;-6.60;99.90;;;;;;4947078;28;20086;-53
2021/12/26 07:47:08;;;;;;;5.70;2.83;;;-6.60;99.90;;;;;;4942707;28;20406;-50
2021/12/26 07:49:33;;;;;;;7.25;2.58;;;-6.60;99.90;;;;;;4940338;28;20090;-50
2021/12/26 07:51:59;;;;;;;4.20;2.58;;;-6.60;99.90;;;;;;4943220;28;20054;-49
2021/12/26 07:54:26;;;;;;;4.53;2.50;;;-6.70;99.90;;;;;;4926488;29;20461;-48
2021/12/26 07:56:53;;;;;;;5.30;2.70;;;-6.70;99.90;;;;;;4942405;28;20055;-49
2021/12/26 07:59:19;;;;;;;6.45;2.55;;;-6.60;99.90;;;;;;4942973;28;20051;-50
2021/12/26 08:01:46;;;;;;;4.93;2.78;;;-6.70;99.90;;;;;;4925522;29;20596;-51
2021/12/26 08:04:13;;;;;;;6.65;3.17;;;-6.60;99.90;;;;;;4942017;28;20078;-50
2021/12/26 08:06:40;;;;;;;6.88;2.78;;;-6.60;99.90;;;;;;4947751;28;20043;-48
2021/12/26 08:09:07;;;;;;;5.70;3.15;;;-6.60;99.90;;;;;;4943169;28;20570;-49
2021/12/26 08:11:33;;;;;;;8.20;2.60;;;-6.60;99.90;;;;;;4948786;28;20130;-49
2021/12/26 08:13:59;;;;;;;6.00;2.80;;;-6.60;99.90;;;;;;4944928;28;20513;-49
2021/12/26 08:16:26;;;;;;;6.18;2.97;;;-6.50;99.90;;;;;;4943038;28;20043;-49
2021/12/26 08:18:57;;;;;;;5.53;3.17;;;-6.50;99.90;;;;;;4939282;28;20078;-49
2021/12/26 08:21:23;;;;;;;4.50;2.67;;;-6.50;99.90;;;;;;4936344;28;20046;-51
2021/12/26 08:23:49;;;;;;;4.88;2.55;;;-6.50;99.90;;;;;;4941300;28;20059;-48
2021/12/26 08:26:15;;;;;;;7.18;3.50;;;-6.40;99.90;;;;;;4944745;28;20047;-49
2021/12/26 08:28:40;;;;;;;4.95;3.05;;;-6.30;99.90;;;;;;4941497;28;20491;-49
2021/12/26 08:31:09;;;;;;;6.18;2.85;;;-6.30;99.90;;;;;;4938472;28;20043;-49
2021/12/26 08:33:35;;;;;;;3.95;2.78;;;-6.30;99.90;;;;;;4944015;28;20051;-48
2021/12/26 08:36:01;;;;;;;6.07;2.50;;;-6.30;99.90;;;;;;4927638;29;20058;-50
2021/12/26 08:38:32;;;;;;;6.20;3.08;;;-6.20;99.90;;;;;;4934194;28;20050;-49
2021/12/26 08:40:59;;;;;;;5.18;3.20;;;-6.10;99.90;;;;;;4930375;29;20051;-51
2021/12/26 08:43:25;;;;;;;11.43;3.58;;;-6.10;99.90;;;;;;4948438;28;20043;-50
2021/12/26 08:45:51;;;;;;;6.40;3.30;;;-6.00;99.90;;;;;;4943977;28;20135;-54
2021/12/26 08:48:17;;;;;;;4.90;3.03;;;-6.00;99.90;;;;;;4926661;28;20055;-50
2021/12/26 08:50:43;;;;;;;7.00;2.90;;;-5.90;99.90;;;;;;4940032;29;20051;-49
2021/12/26 08:53:10;;;;;;;8.20;3.13;;;-5.90;99.90;;;;;;4953175;28;20494;-49
2021/12/26 08:55:37;;;;;;;5.20;3.45;;;-5.80;99.90;;;;;;4927854;29;20118;-49
2021/12/26 08:58:06;;;;;;;6.55;3.03;;;-5.80;99.90;;;;;;4928805;28;20039;-48
2021/12/26 09:00:34;;;;;;;7.25;3.10;;;-5.70;99.90;;;;;;4945843;28;20059;-50
2021/12/26 09:03:00;;;;;;;6.55;3.22;;;-5.60;99.90;;;;;;4941441;28;20055;-48
2021/12/26 09:05:26;;;;;;;6.38;3.30;;;-5.60;99.90;;;;;;4945271;28;20051;-50
2021/12/26 09:07:51;;;;;;;5.65;3.58;;;-5.50;99.90;;;;;;4944417;28;20521;-49
2021/12/26 09:10:17;;;;;;;6.00;2.88;;;-5.50;99.90;;;;;;4919326;29;20141;-50
2021/12/26 09:12:44;;;;;;;7.78;3.10;;;-5.40;99.90;;;;;;4939307;29;20047;-50
2021/12/26 09:15:12;;;;;;;5.43;3.15;;;-5.30;99.90;;;;;;4944231;29;20039;-49
2021/12/26 09:17:39;;;;;;;4.38;3.20;;;-5.30;99.90;;;;;;4926990;29;20079;-52
2021/12/26 09:20:06;;;;;;;6.10;3.45;;;-5.20;99.90;;;;;;4927101;29;20039;-48
2021/12/26 09:22:32;;;;;;;7.35;4.05;;;-5.20;99.90;;;;;;4946700;29;20067;-49
2021/12/26 09:24:59;;;;;;;5.95;2.72;;;-5.10;99.90;;;;;;4944286;28;20051;-50
2021/12/26 09:27:28;;;;;;;5.78;3.33;;;-5.00;99.90;;;;;;4927886;29;20510;-48
2021/12/26 09:29:53;;;;;;;6.43;3.38;;;-5.00;99.90;;;;;;4927469;29;20114;-50
2021/12/26 09:32:19;;;;;;;7.40;4.53;;;-5.00;99.90;;;;;;4945917;29;20451;-49
2021/12/26 09:34:45;;;;;;;7.93;4.22;;;-4.90;99.90;;;;;;4945523;28;20087;-48
2021/12/26 09:37:11;;;;;;;6.90;3.83;;;-4.90;99.90;;;;;;4911746;29;20126;-49
2021/12/26 09:39:37;;;;;;;7.93;5.03;;;-4.80;99.90;;;;;;4932551;28;20047;-48
2021/12/26 09:42:03;;;;;;;5.38;3.63;;;-4.80;99.90;;;;;;4942719;28;20039;-50
2021/12/26 09:44:29;;;;;;;7.10;3.25;;;-4.70;99.90;;;;;;4923236;28;20054;-49
2021/12/26 09:46:55;;;;;;;7.20;3.40;;;-4.70;99.90;;;;;;4940540;28;20043;-48
2021/12/26 09:49:21;;;;;;;5.82;3.22;;;-4.60;99.90;;;;;;4936898;28;20043;-48
2021/12/26 09:51:49;;;;;;;6.57;3.42;;;-4.50;99.90;;;;;;4935897;29;20090;-49
2021/12/26 09:54:16;;;;;;;6.03;3.55;;;-4.50;99.90;;;;;;4937177;28;20500;-49
2021/12/26 09:56:42;;;;;;;7.68;4.25;;;-4.40;99.90;;;;;;4939716;28;20054;-48
2021/12/26 09:59:14;;;;;;;7.50;3.92;;;-4.40;99.90;;;;;;4927202;29;20065;-50
2021/12/26 10:01:46;;;;;;;7.23;3.43;;;-4.30;99.90;;;;;;4938917;28;20074;-50
2021/12/26 10:04:32;;;;;;;10.45;4.68;;;-4.20;99.90;;;;;;4935766;28;20095;-48
2021/12/26 10:06:58;;;;;;;6.15;3.58;;;-4.10;99.90;;;;;;4944064;28;20047;-47
2021/12/26 10:09:24;;;;;;;9.50;4.15;;;-4.10;99.90;;;;;;4944680;29;20058;-48
2021/12/26 10:11:52;;;;;;;5.78;3.47;;;-4.00;99.90;;;;;;4943801;28;20142;-49
2021/12/26 10:14:21;;;;;;;5.95;3.17;;;-3.90;99.90;;;;;;4923316;29;20082;-49
2021/12/26 10:16:51;;;;;;;7.90;4.57;;;-3.90;99.90;;;;;;4940906;29;20458;-52
2021/12/26 10:19:17;;;;;;;7.55;4.32;;;-3.90;99.90;;;;;;4926766;29;20561;-51
2021/12/26 10:21:56;;;;;;;4.55;2.90;;;-3.80;99.90;;;;;;4944521;29;20062;-50
2021/12/26 10:24:33;;;;;;;4.13;2.90;;;-3.70;99.90;;;;;;4924439;29;20059;-50
2021/12/26 10:27:02;;;;;;;5.95;3.63;;;-3.70;99.90;;;;;;4944282;29;20051;-50
2021/12/26 10:29:32;;;;;;;6.50;4.07;;;-3.60;99.90;;;;;;4941853;29;20055;-49
2021/12/26 10:32:21;;;;;;;6.70;3.30;;;-3.60;99.90;;;;;;4945054;29;20067;-51
2021/12/26 10:34:50;;;;;;;4.78;3.17;;;-3.50;99.90;;;;;;4943468;28;20051;-49
2021/12/26 10:37:22;;;;;;;5.22;3.67;;;-3.50;99.90;;;;;;4927377;29;20066;-50
2021/12/26 10:39:51;;;;;;;5.32;3.60;;;-3.50;99.90;;;;;;4944071;29;20051;-49
2021/12/26 10:42:20;;;;;;;8.13;3.53;;;-3.50;99.90;;;;;;4939777;28;20051;-49
2021/12/26 10:44:57;;;;;;;6.53;3.70;;;-3.50;99.90;;;;;;4928285;29;20110;-49
2021/12/26 10:47:27;;;;;;;6.00;3.80;;;-3.50;99.90;;;;;;4943410;28;20069;-49
2021/12/26 10:49:57;;;;;;;7.03;3.42;;;-3.50;99.90;;;;;;4943788;28;20047;-52
2021/12/26 10:52:30;;;;;;;7.03;3.53;;;-3.40;99.90;;;;;;4943449;29;20063;-49
2021/12/26 10:55:03;;;;;;;7.80;4.20;;;-3.40;99.90;;;;;;4944826;29;20552;-47
2021/12/26 10:57:36;;;;;;;7.78;4.13;;;-3.30;99.90;;;;;;4943493;29;20042;-48
2021/12/26 11:00:26;;;;;;;7.78;3.85;;;-3.20;99.90;;;;;;4942905;29;20062;-48
2021/12/26 11:03:00;;;;;;;7.07;4.07;;;-3.20;99.90;;;;;;4943784;28;20055;-48
2021/12/26 11:05:35;;;;;;;5.30;3.85;;;-3.20;99.90;;;;;;4906006;29;20083;-49
2021/12/26 11:08:13;;;;;;;7.05;4.22;;;-3.10;99.90;;;;;;4942985;29;20122;-49
2021/12/26 11:10:44;;;;;;;5.80;3.80;;;-3.10;99.90;;;;;;4922058;29;20090;-49
2021/12/26 11:13:25;;;;;;;10.73;3.83;;;-3.10;99.90;;;;;;4940931;29;20054;-48
2021/12/26 11:15:55;;;;;;;6.80;3.85;;;-3.00;99.90;;;;;;4919731;29;20071;-49
2021/12/26 11:18:22;;;;;;;6.55;4.07;;;-3.00;99.90;;;;;;4939096;29;20537;-49
2021/12/26 11:20:58;;;;;;;10.15;4.20;;;-3.00;99.90;;;;;;4943657;29;20054;-49
2021/12/26 11:23:30;;;;;;;6.70;4.35;;;-2.90;99.90;;;;;;4944344;29;20051;-48
2021/12/26 11:26:09;;;;;;;6.22;4.28;;;-2.90;99.90;;;;;;4943372;29;20054;-49
2021/12/26 11:28:40;;;;;;;6.75;4.10;;;-2.90;99.90;;;;;;4943287;29;20130;-48
2021/12/26 11:31:09;;;;;;;8.65;5.22;;;-2.90;99.90;;;;;;4941529;29;20041;-50
2021/12/26 11:33:35;;;;;;;7.05;4.28;;;-2.80;99.90;;;;;;4945172;28;20399;-49
2021/12/26 11:36:04;;;;;;;6.88;4.57;;;-2.80;99.90;;;;;;4910765;29;20063;-48
2021/12/26 11:38:30;;;;;;;7.70;4.70;;;-2.80;99.90;;;;;;4941248;29;20498;-50
2021/12/26 11:41:03;;;;;;;6.38;3.88;;;-2.70;99.90;;;;;;4941581;29;20516;-48
2021/12/26 11:43:51;;;;;;;5.60;4.28;;;-2.70;99.90;;;;;;4944309;29;20813;-50
2021/12/26 11:46:54;;;;;;;6.30;4.55;;;-2.70;99.90;;;;;;4938727;29;20515;-50
2021/12/26 11:50:04;;;;;;;6.30;3.88;;;-2.70;99.90;;;;;;4919620;29;20069;-53
2021/12/26 11:52:47;;;;;;;9.25;4.80;;;-2.60;99.90;;;;;;4940022;29;20067;-49
2021/12/26 11:55:28;;;;;;;7.93;5.20;;;-2.60;99.90;;;;;;4943014;29;20109;-48
2021/12/26 11:58:11;;;;;;;7.30;4.63;;;-2.50;99.90;;;;;;4934103;29;20454;-48
2021/12/26 12:00:41;;;;;;;8.60;5.03;;;-2.50;99.90;;;;;;4934825;29;20074;-49
2021/12/26 12:03:21;;;;;;;6.18;4.30;;;-2.40;99.90;;;;;;4936593;28;20412;-48
2021/12/26 12:05:47;;;;;;;6.15;4.47;;;-2.40;99.90;;;;;;4933105;29;20093;-49
2021/12/26 12:08:23;;;;;;;7.38;4.30;;;-2.30;99.90;;;;;;4922137;29;20463;-49
2021/12/26 12:11:00;;;;;;;8.68;5.13;;;-2.30;99.90;;;;;;4937264;29;20047;-49
2021/12/26 12:13:25;;;;;;;12.30;7.68;;;-2.20;99.90;;;;;;4922751;29;20118;-48
2021/12/26 12:15:55;;;;;;;7.88;4.78;;;-2.20;99.90;;;;;;4937916;28;20047;-51
2021/12/26 12:18:29;;;;;;;6.72;5.18;;;-2.10;99.90;;;;;;4936537;29;20680;-51
2021/12/26 12:21:24;;;;;;;10.43;6.30;;;-2.10;99.90;;;;;;4942193;29;20050;-49
2021/12/26 12:24:09;;;;;;;11.77;7.20;;;-2.00;99.90;;;;;;4939971;29;20051;-48
2021/12/26 12:26:44;;;;;;;8.75;5.50;;;-2.00;99.90;;;;;;4943928;29;20051;-50
2021/12/26 12:29:13;;;;;;;8.77;6.75;;;-2.00;99.90;;;;;;4923370;29;20067;-49
2021/12/26 12:31:40;;;;;;;7.40;4.85;;;-1.90;99.90;;;;;;4918908;29;20125;-49
2021/12/26 12:34:09;;;;;;;6.13;4.72;;;-1.90;99.90;;;;;;4941920;28;20039;-50
2021/12/26 12:36:41;;;;;;;8.32;5.55;;;-1.80;99.90;;;;;;4927916;29;20462;-50
2021/12/26 12:39:14;;;;;;;9.95;6.30;;;-1.80;99.90;;;;;;4946055;28;20094;-49
2021/12/26 12:41:51;;;;;;;18.25;5.70;;;-1.70;99.90;;;;;;4942073;28;20047;-51
2021/12/26 12:44:28;;;;;;;9.93;7.13;;;-1.70;99.90;;;;;;4937225;29;20047;-49
2021/12/26 12:47:03;;;;;;;6.95;5.45;;;-1.70;99.90;;;;;;4942938;29;20043;-51
2021/12/26 12:49:53;;;;;;;10.40;6.43;;;-1.60;99.90;;;;;;4946828;28;20105;-55
2021/12/26 12:52:37;;;;;;;18.95;10.02;;;-1.60;99.90;;;;;;4901835;29;20069;-51
2021/12/26 12:55:08;;;;;;;9.07;6.60;;;-1.50;99.90;;;;;;4902587;29;20095;-49
2021/12/26 12:57:37;;;;;;;10.20;8.07;;;-1.40;99.90;;;;;;4888049;29;20109;-50
2021/12/26 13:00:23;;;;;;;9.02;7.00;;;-1.40;99.90;;;;;;4892380;29;20572;-51
2021/12/26 13:02:49;;;;;;;11.18;6.90;;;-1.40;99.90;;;;;;4896105;29;20431;-49